首页
METAR-TAF:

METAR-TAF

机场 :

岐阜, 日本

纬度: 35-23N, 经度: 136-52E, 海拔: 39米

当前天气观测

该预报发布于57分钟前的23:32 UTC
风速2节,风向多变
温度 25°C
湿度 69%
气压 1015 hPa
能见度10公里或以上
少量云层高于3000英尺
散云层高于13000英尺
多云层高于25000英尺

METAR: RJNG 232332Z VRB02KT 9999 FEW030 SCT130 BKN250 25/19 Q1015 RMK 1CU030 3AC130 A2999

时间: 09:29 (00:29 UTC)


TAF: 丢失

超过4000个机场的气象观测和天气预报(METAR&TAF报告)。

可查询的气象台以黄色和红色小点在地图上表示。

将鼠标移到小点上方,可查看气象台名称。

然后点击查看天气观测和预报。

如需切换地图:点击带黑十字的绿色按钮放大地图;点击带横线的绿色按钮缩小地图;或者点击绿色箭头查看邻近地区的地图。


METAR-TAF: